Terminal Aerodrome Forecast
Issued by NWS

Home | Current Version | Previous Version | Text Only | Print | Product List | Glossary On
Versions: 1 2 3 4 5 6 7 8 9 10 11 12
000
FTUS45 KABQ 212300
TAFROW
TAF
KROW 212323Z 2200/2224 14006KT P6SM BKN250
     FM220400 29005KT P6SM BKN120
     FM221000 33005KT P6SM OVC120
     FM222000 29007KT P6SM SCT200=

USA.gov is the U.S. government's official web portal to all federal, state and local government web resources and services.